Time;durP1;ratioP1;P1;durP2;ratioP2;P2;SDS_P1;SDS_P2;PMS_P1;PMS_P2;Temp;Humidity;BMP_temperature;BMP_pressure;BME280_temperature;BME280_humidity;BME280_pressure;Samples;Min_cycle;Max_cycle;Signal;HPM_P1;HPM_P2
2023/09/28 00:01:18;;;;;;;10.80;7.80;;;19.20;99.90;;;;;;5131011;28;20031;-62
2023/09/28 00:03:45;;;;;;;10.02;7.43;;;19.20;99.90;;;;;;5132146;27;20039;-63
2023/09/28 00:06:11;;;;;;;10.88;7.60;;;19.30;99.90;;;;;;5134069;27;20035;-61
2023/09/28 00:08:37;;;;;;;11.32;7.35;;;19.20;99.90;;;;;;5115514;27;20116;-61
2023/09/28 00:11:04;;;;;;;10.00;7.78;;;19.20;99.90;;;;;;5134771;27;20039;-61
2023/09/28 00:13:29;;;;;;;11.23;7.60;;;19.20;99.90;;;;;;5115861;27;20483;-63
2023/09/28 00:15:55;;;;;;;9.60;6.80;;;19.20;99.90;;;;;;5132407;27;20063;-62
2023/09/28 00:18:23;;;;;;;10.35;7.85;;;19.20;99.90;;;;;;5134476;27;20038;-60
2023/09/28 00:20:49;;;;;;;9.45;6.90;;;19.20;99.90;;;;;;5116737;27;20030;-62
2023/09/28 00:23:17;;;;;;;9.40;7.25;;;19.20;99.90;;;;;;5134784;27;20035;-61
2023/09/28 00:25:43;;;;;;;10.50;7.43;;;19.20;99.90;;;;;;5132325;27;20162;-61
2023/09/28 00:28:09;;;;;;;10.75;7.47;;;19.30;99.90;;;;;;5134300;27;20042;-64
2023/09/28 00:30:35;;;;;;;10.70;7.13;;;19.20;99.90;;;;;;5134176;27;20043;-60
2023/09/28 00:33:01;;;;;;;10.70;6.93;;;19.20;99.90;;;;;;5097897;27;20043;-65
2023/09/28 00:35:27;;;;;;;10.30;7.45;;;19.20;99.90;;;;;;5133893;27;20046;-61
2023/09/28 00:37:53;;;;;;;9.02;7.38;;;19.20;99.90;;;;;;5114959;27;20468;-61
2023/09/28 00:40:21;;;;;;;9.25;7.13;;;19.10;99.90;;;;;;5114746;27;20027;-61
2023/09/28 00:42:51;;;;;;;8.23;7.07;;;19.10;99.90;;;;;;5115000;27;20104;-62
2023/09/28 00:45:19;;;;;;;10.15;7.20;;;19.10;99.90;;;;;;5132350;27;20088;-61
2023/09/28 00:47:45;;;;;;;7.75;6.95;;;19.00;99.90;;;;;;5132801;27;20493;-61
2023/09/28 00:50:16;;;;;;;9.55;7.32;;;19.00;99.90;;;;;;5133685;27;20061;-64
2023/09/28 00:52:49;;;;;;;10.23;7.20;;;19.00;99.90;;;;;;5133967;27;20487;-63
2023/09/28 00:55:17;;;;;;;9.77;7.43;;;18.90;99.90;;;;;;5133122;27;20031;-61
2023/09/28 00:57:44;;;;;;;9.57;8.07;;;18.90;99.90;;;;;;5133215;27;20474;-64
2023/09/28 01:00:28;;;;;;;9.75;7.47;;;18.90;99.90;;;;;;5132955;27;20039;-63
2023/09/28 01:02:55;;;;;;;8.27;7.40;;;18.90;99.90;;;;;;5114480;27;20088;-63
2023/09/28 01:05:32;;;;;;;10.73;7.70;;;18.80;99.90;;;;;;5115933;27;20035;-64
2023/09/28 01:08:12;;;;;;;10.23;7.68;;;18.80;99.90;;;;;;5132669;27;20035;-63
2023/09/28 01:10:40;;;;;;;8.85;7.53;;;18.70;99.90;;;;;;5110674;27;20041;-61
2023/09/28 01:13:11;;;;;;;8.48;7.28;;;18.70;99.90;;;;;;5128079;27;20956;-61
2023/09/28 01:15:40;;;;;;;10.02;7.47;;;18.70;99.90;;;;;;5096661;27;20079;-62
2023/09/28 01:18:15;;;;;;;9.82;7.68;;;18.60;99.90;;;;;;5131232;27;20051;-62
2023/09/28 01:20:45;;;;;;;9.07;7.32;;;18.60;99.90;;;;;;5128634;27;20282;-63
2023/09/28 01:23:11;;;;;;;9.18;7.40;;;18.60;99.90;;;;;;5093177;27;20098;-62
2023/09/28 01:25:38;;;;;;;8.57;7.13;;;18.50;99.90;;;;;;5131989;27;20082;-61
2023/09/28 01:28:05;;;;;;;9.32;7.70;;;18.50;99.90;;;;;;5131125;27;20039;-63
2023/09/28 01:30:31;;;;;;;9.32;7.45;;;18.50;99.90;;;;;;5131777;27;20037;-62
2023/09/28 01:32:57;;;;;;;11.05;7.97;;;18.40;99.90;;;;;;5132327;27;20114;-63
2023/09/28 01:35:23;;;;;;;9.30;7.65;;;18.30;99.90;;;;;;5131701;27;20121;-61
2023/09/28 01:38:04;;;;;;;10.50;8.13;;;18.30;99.90;;;;;;5132073;27;20118;-61
2023/09/28 01:40:30;;;;;;;9.73;7.50;;;18.30;99.90;;;;;;5131644;27;20076;-66
2023/09/28 01:42:55;;;;;;;10.63;7.82;;;18.20;99.90;;;;;;5132216;27;20386;-64
2023/09/28 01:45:21;;;;;;;8.75;7.75;;;18.20;99.90;;;;;;5132137;27;20458;-62
2023/09/28 01:47:47;;;;;;;10.18;7.43;;;18.10;99.90;;;;;;5113998;27;20542;-63
2023/09/28 01:50:12;;;;;;;9.60;7.53;;;18.10;99.90;;;;;;5129517;27;20054;-63
2023/09/28 01:52:38;;;;;;;8.93;7.45;;;18.00;99.90;;;;;;5131537;27;20389;-64
2023/09/28 01:55:04;;;;;;;11.20;7.72;;;18.00;99.90;;;;;;5132831;27;20080;-61
2023/09/28 01:57:31;;;;;;;8.95;7.82;;;18.00;99.90;;;;;;5133085;27;20135;-60
2023/09/28 01:59:59;;;;;;;10.15;7.57;;;17.90;99.90;;;;;;5113772;27;20576;-62
2023/09/28 02:02:26;;;;;;;8.50;7.70;;;17.90;99.90;;;;;;5114386;27;20039;-61
2023/09/28 02:04:51;;;;;;;11.13;8.23;;;17.90;99.90;;;;;;5097267;27;20167;-62
2023/09/28 02:07:18;;;;;;;9.73;7.85;;;17.90;99.90;;;;;;5114593;27;20478;-66
2023/09/28 02:09:44;;;;;;;9.75;8.00;;;17.80;99.90;;;;;;5132330;27;20050;-62
2023/09/28 02:12:10;;;;;;;9.88;7.68;;;17.80;99.90;;;;;;5132524;27;20387;-63
2023/09/28 02:14:36;;;;;;;10.80;7.70;;;17.70;99.90;;;;;;5132126;27;20057;-64
2023/09/28 02:17:02;;;;;;;12.13;8.10;;;17.70;99.90;;;;;;5132460;27;20043;-63
2023/09/28 02:19:28;;;;;;;10.02;8.35;;;17.60;99.90;;;;;;5132569;27;20035;-61
2023/09/28 02:21:53;;;;;;;11.30;7.97;;;17.60;99.90;;;;;;5132099;27;20042;-62
2023/09/28 02:24:19;;;;;;;10.38;8.10;;;17.60;99.90;;;;;;5131962;27;20448;-62
2023/09/28 02:26:45;;;;;;;10.73;7.75;;;17.50;99.90;;;;;;5131967;27;20088;-66
2023/09/28 02:29:12;;;;;;;9.30;8.10;;;17.50;99.90;;;;;;5131952;27;20042;-63
2023/09/28 02:31:42;;;;;;;10.90;7.88;;;17.50;99.90;;;;;;5114004;27;20047;-63
2023/09/28 02:34:07;;;;;;;12.10;9.15;;;17.40;99.90;;;;;;5132533;27;20475;-64
2023/09/28 02:36:33;;;;;;;12.82;9.75;;;17.40;99.90;;;;;;5132100;27;20521;-63
2023/09/28 02:38:59;;;;;;;11.75;10.00;;;17.40;99.90;;;;;;5131725;27;20084;-61
2023/09/28 02:41:25;;;;;;;11.90;9.82;;;17.30;99.90;;;;;;5132092;27;20531;-61
2023/09/28 02:43:51;;;;;;;11.63;10.38;;;17.30;99.90;;;;;;5132327;27;20042;-62
2023/09/28 02:46:17;;;;;;;11.45;10.25;;;17.30;99.90;;;;;;5132272;27;20513;-60
2023/09/28 02:48:43;;;;;;;13.02;11.20;;;17.20;99.90;;;;;;5132180;27;20070;-63
2023/09/28 02:51:10;;;;;;;13.85;11.23;;;17.10;99.90;;;;;;5113641;27;20034;-63
2023/09/28 02:53:36;;;;;;;15.82;12.32;;;17.10;99.90;;;;;;5113432;27;20041;-62
2023/09/28 02:56:05;;;;;;;15.20;12.68;;;17.00;99.90;;;;;;5131651;27;20070;-63
2023/09/28 02:58:31;;;;;;;17.08;13.07;;;17.00;99.90;;;;;;5131703;27;20042;-65
2023/09/28 03:00:57;;;;;;;16.55;12.88;;;17.00;99.90;;;;;;5131813;27;20118;-61
2023/09/28 03:03:23;;;;;;;17.42;14.95;;;16.90;99.90;;;;;;5131817;27;20042;-64
2023/09/28 03:05:59;;;;;;;18.33;14.50;;;16.80;99.90;;;;;;5131638;27;20038;-62
2023/09/28 03:08:25;;;;;;;19.17;14.68;;;16.80;99.90;;;;;;5131770;28;20108;-64
2023/09/28 03:10:51;;;;;;;16.85;14.52;;;16.80;99.90;;;;;;5131495;28;20047;-61
2023/09/28 03:13:18;;;;;;;17.92;13.98;;;16.80;99.90;;;;;;5113347;28;20047;-64
2023/09/28 03:15:45;;;;;;;17.05;13.73;;;16.80;99.90;;;;;;5130336;27;20043;-61
2023/09/28 03:18:11;;;;;;;13.82;12.02;;;16.70;99.90;;;;;;5131293;28;20122;-63
2023/09/28 03:20:38;;;;;;;13.75;11.68;;;16.80;99.90;;;;;;5131568;28;20377;-63
2023/09/28 03:23:04;;;;;;;15.63;11.63;;;16.70;99.90;;;;;;5113051;28;20046;-62
2023/09/28 03:25:30;;;;;;;14.65;11.32;;;16.70;99.90;;;;;;5112997;28;20047;-63
2023/09/28 03:27:59;;;;;;;14.40;11.00;;;16.70;99.90;;;;;;5131671;28;20482;-61
2023/09/28 03:30:26;;;;;;;11.95;9.40;;;16.80;99.90;;;;;;5112963;28;20116;-65
2023/09/28 03:32:52;;;;;;;11.55;9.57;;;16.80;99.90;;;;;;5113008;28;20039;-64
2023/09/28 03:35:19;;;;;;;11.27;9.18;;;16.80;99.90;;;;;;5131447;28;20027;-63
2023/09/28 03:37:46;;;;;;;10.35;8.60;;;16.80;99.90;;;;;;5131887;28;20030;-62
2023/09/28 03:40:13;;;;;;;9.95;8.10;;;16.80;99.90;;;;;;5134440;27;20027;-61
2023/09/28 03:42:48;;;;;;;10.50;8.05;;;16.80;99.90;;;;;;5134951;27;20039;-64
2023/09/28 03:45:16;;;;;;;11.88;8.45;;;16.80;99.90;;;;;;5117022;27;20533;-61
2023/09/28 03:47:43;;;;;;;10.40;7.85;;;16.80;99.90;;;;;;5134681;27;20066;-62
2023/09/28 03:50:11;;;;;;;12.52;8.15;;;16.80;99.90;;;;;;5135400;27;20088;-62
2023/09/28 03:52:38;;;;;;;10.00;8.02;;;16.90;99.90;;;;;;5134939;27;20464;-64
2023/09/28 03:55:04;;;;;;;12.90;7.47;;;16.80;99.90;;;;;;5116214;27;20039;-64
2023/09/28 03:57:30;;;;;;;12.05;8.45;;;16.90;99.90;;;;;;5135380;27;20038;-63
2023/09/28 03:59:56;;;;;;;11.13;7.32;;;16.80;99.90;;;;;;5135171;27;20035;-63
2023/09/28 04:02:27;;;;;;;8.88;7.53;;;16.90;99.90;;;;;;5135134;27;20439;-64
2023/09/28 04:04:52;;;;;;;11.20;8.55;;;16.80;99.90;;;;;;5135497;27;20043;-64
2023/09/28 04:07:18;;;;;;;13.75;8.60;;;16.80;99.90;;;;;;5116132;27;20478;-65
2023/09/28 04:09:44;;;;;;;11.43;7.95;;;16.70;99.90;;;;;;5134421;27;20042;-61
2023/09/28 04:12:12;;;;;;;12.40;8.48;;;16.70;99.90;;;;;;5134985;27;20042;-65
2023/09/28 04:14:38;;;;;;;11.73;8.50;;;16.80;99.90;;;;;;5116383;27;20042;-64
2023/09/28 04:17:03;;;;;;;12.30;7.85;;;16.70;99.90;;;;;;5134979;27;20031;-63
2023/09/28 04:19:30;;;;;;;13.45;7.95;;;16.70;99.90;;;;;;5134541;27;20498;-60
2023/09/28 04:21:56;;;;;;;11.63;8.40;;;16.70;99.90;;;;;;5134763;27;20489;-62
2023/09/28 04:24:22;;;;;;;11.60;8.55;;;16.70;99.90;;;;;;5134297;27;20039;-62
2023/09/28 04:26:47;;;;;;;11.98;8.38;;;16.60;99.90;;;;;;5116315;27;20117;-64
2023/09/28 04:29:13;;;;;;;11.30;8.90;;;16.50;99.90;;;;;;5133613;27;20638;-68
2023/09/28 04:31:40;;;;;;;12.05;8.60;;;16.50;99.90;;;;;;5133046;27;20070;-62
2023/09/28 04:34:07;;;;;;;11.10;8.38;;;16.50;99.90;;;;;;5134333;27;20035;-61
2023/09/28 04:36:33;;;;;;;12.02;8.77;;;16.50;99.90;;;;;;5115928;27;20047;-63
2023/09/28 04:38:59;;;;;;;12.82;9.18;;;16.40;99.90;;;;;;5134310;27;20039;-62
2023/09/28 04:41:26;;;;;;;10.57;9.13;;;16.40;99.90;;;;;;5134523;27;20568;-64
2023/09/28 04:43:52;;;;;;;13.57;9.63;;;16.30;99.90;;;;;;5134696;27;20039;-61
2023/09/28 04:46:18;;;;;;;12.77;8.75;;;16.40;99.90;;;;;;5134077;27;20031;-65
2023/09/28 04:48:43;;;;;;;11.70;8.80;;;16.40;99.90;;;;;;5115728;27;20039;-63
2023/09/28 04:51:09;;;;;;;13.00;9.82;;;16.30;99.90;;;;;;5133203;27;20075;-63
2023/09/28 04:53:35;;;;;;;13.35;10.65;;;16.30;99.90;;;;;;5134195;27;20093;-64
2023/09/28 04:56:11;;;;;;;13.30;10.48;;;16.20;99.90;;;;;;5133867;27;20043;-63
2023/09/28 04:58:37;;;;;;;17.85;10.95;;;16.30;99.90;;;;;;5133941;27;20389;-62
2023/09/28 05:01:02;;;;;;;12.90;10.32;;;16.10;99.90;;;;;;5134084;27;20035;-62
2023/09/28 05:03:28;;;;;;;11.88;10.15;;;16.30;99.90;;;;;;5134038;27;20397;-61
2023/09/28 05:05:54;;;;;;;12.35;9.50;;;16.20;99.90;;;;;;5133973;27;20583;-64
2023/09/28 05:08:20;;;;;;;14.30;8.48;;;16.20;99.90;;;;;;5133693;27;20087;-64
2023/09/28 05:10:45;;;;;;;11.50;7.70;;;16.20;99.90;;;;;;5115321;27;20047;-64
2023/09/28 05:13:12;;;;;;;10.90;7.68;;;16.30;99.90;;;;;;5115778;27;20035;-64
2023/09/28 05:15:38;;;;;;;10.80;7.22;;;16.20;99.90;;;;;;5133534;27;20117;-62
2023/09/28 05:18:04;;;;;;;9.57;7.15;;;16.20;99.90;;;;;;5133437;27;20050;-59
2023/09/28 05:20:31;;;;;;;9.98;6.68;;;16.20;99.90;;;;;;5114789;27;20035;-61
2023/09/28 05:22:57;;;;;;;11.57;6.88;;;16.40;99.90;;;;;;5133765;27;20112;-66
2023/09/28 05:25:23;;;;;;;11.50;7.13;;;16.20;99.90;;;;;;5102548;28;20506;-61
2023/09/28 05:27:49;;;;;;;11.05;6.55;;;16.30;99.90;;;;;;5091756;28;20032;-63
2023/09/28 05:30:15;;;;;;;15.07;7.35;;;16.30;99.90;;;;;;5090191;28;20447;-65
2023/09/28 05:32:41;;;;;;;10.98;7.03;;;16.30;99.90;;;;;;5091833;28;20119;-62
2023/09/28 05:35:07;;;;;;;11.40;6.68;;;16.30;99.90;;;;;;5092235;28;20116;-64
2023/09/28 05:37:32;;;;;;;12.02;7.10;;;16.40;99.90;;;;;;5092412;28;20036;-62
2023/09/28 05:40:02;;;;;;;12.73;6.95;;;16.30;99.90;;;;;;5092028;28;20487;-62
2023/09/28 05:42:27;;;;;;;12.45;6.93;;;16.20;99.90;;;;;;5092192;28;20070;-61
2023/09/28 05:44:53;;;;;;;13.02;6.68;;;16.30;99.90;;;;;;5092115;28;20475;-62
2023/09/28 05:47:22;;;;;;;12.73;7.20;;;16.10;99.90;;;;;;5092011;28;20291;-63
2023/09/28 05:49:49;;;;;;;13.43;7.22;;;16.20;99.90;;;;;;5089359;28;20115;-62
2023/09/28 05:52:15;;;;;;;11.30;7.28;;;16.20;99.90;;;;;;5091257;28;20101;-63
2023/09/28 05:54:42;;;;;;;13.50;7.78;;;16.10;99.90;;;;;;5090679;28;20067;-62
2023/09/28 05:57:07;;;;;;;13.57;7.30;;;16.20;99.90;;;;;;5091941;28;20122;-63
2023/09/28 05:59:33;;;;;;;18.27;9.02;;;16.10;99.90;;;;;;5090218;28;20140;-62
2023/09/28 06:01:59;;;;;;;16.20;9.27;;;16.10;99.90;;;;;;5091983;28;20028;-61
2023/09/28 06:04:25;;;;;;;14.38;7.45;;;16.10;99.90;;;;;;5090760;28;20040;-65
2023/09/28 06:06:51;;;;;;;15.13;6.72;;;16.10;99.90;;;;;;5087949;28;20080;-64
2023/09/28 06:09:21;;;;;;;14.93;7.35;;;16.10;99.90;;;;;;5090231;28;20654;-64
2023/09/28 06:11:47;;;;;;;13.38;6.80;;;16.10;99.90;;;;;;5089029;28;20140;-61
2023/09/28 06:14:15;;;;;;;15.68;7.22;;;16.10;99.90;;;;;;5091555;28;20067;-62
2023/09/28 06:16:42;;;;;;;15.00;6.38;;;16.10;99.90;;;;;;5088306;28;20040;-63
2023/09/28 06:19:09;;;;;;;19.25;6.45;;;16.00;99.90;;;;;;5091345;28;20040;-62
2023/09/28 06:21:35;;;;;;;13.38;6.15;;;16.10;99.90;;;;;;5091594;28;20036;-63
2023/09/28 06:24:02;;;;;;;13.30;6.63;;;16.10;99.90;;;;;;5091751;27;20050;-59
2023/09/28 06:26:27;;;;;;;17.88;6.38;;;16.10;99.90;;;;;;5132150;27;20046;-61
2023/09/28 06:28:54;;;;;;;14.15;6.40;;;16.00;99.90;;;;;;5132538;27;20047;-61
2023/09/28 06:31:20;;;;;;;15.38;6.53;;;16.10;99.90;;;;;;5132430;27;20436;-64
2023/09/28 06:33:46;;;;;;;16.50;6.50;;;16.10;99.90;;;;;;5096896;27;20135;-63
2023/09/28 06:36:12;;;;;;;20.10;6.22;;;15.90;99.90;;;;;;5114104;27;20420;-60
2023/09/28 06:38:38;;;;;;;18.20;5.70;;;16.00;99.90;;;;;;5079514;27;20038;-61
2023/09/28 06:41:04;;;;;;;17.92;5.38;;;16.10;99.90;;;;;;5132190;27;20031;-61
2023/09/28 06:43:29;;;;;;;19.00;5.80;;;16.10;99.90;;;;;;5129580;27;20030;-61
2023/09/28 06:45:58;;;;;;;25.25;7.13;;;16.00;99.90;;;;;;5131827;27;20027;-58
2023/09/28 06:48:26;;;;;;;18.42;5.90;;;16.00;99.90;;;;;;5131729;27;20047;-57
2023/09/28 06:50:56;;;;;;;16.60;5.90;;;16.10;99.90;;;;;;5131485;27;20039;-62
2023/09/28 06:53:21;;;;;;;17.05;5.30;;;16.10;99.90;;;;;;5131596;27;20130;-62
2023/09/28 06:55:47;;;;;;;18.65;5.28;;;16.20;99.90;;;;;;5132148;27;20122;-62
2023/09/28 06:58:14;;;;;;;19.15;5.30;;;16.30;99.90;;;;;;5122282;27;20500;-63
2023/09/28 07:00:41;;;;;;;25.23;6.53;;;16.30;99.90;;;;;;5123673;27;20039;-62
2023/09/28 07:03:11;;;;;;;23.13;5.50;;;16.30;99.90;;;;;;5123633;27;20437;-63
2023/09/28 07:05:38;;;;;;;20.48;5.63;;;16.40;99.90;;;;;;5123022;27;20047;-63
2023/09/28 07:08:05;;;;;;;20.90;6.05;;;16.60;99.90;;;;;;5123841;27;20039;-60
2023/09/28 07:10:37;;;;;;;22.60;4.68;;;16.60;99.90;;;;;;5102756;28;20041;-62
2023/09/28 07:13:05;;;;;;;20.17;6.30;;;16.60;99.90;;;;;;5123005;27;20046;-60
2023/09/28 07:15:36;;;;;;;13.65;4.05;;;16.60;99.90;;;;;;5122536;28;20432;-63
2023/09/28 07:18:03;;;;;;;19.98;6.47;;;16.70;99.90;;;;;;5123074;28;20088;-62
2023/09/28 07:20:30;;;;;;;21.55;5.40;;;16.70;99.90;;;;;;5123148;28;20031;-61
2023/09/28 07:22:56;;;;;;;17.98;5.15;;;16.80;99.90;;;;;;5123289;28;20467;-62
2023/09/28 07:25:22;;;;;;;18.45;5.68;;;16.80;99.90;;;;;;5122803;28;20047;-61
2023/09/28 07:27:49;;;;;;;20.60;5.93;;;16.90;99.90;;;;;;5123088;28;20478;-60
2023/09/28 07:30:18;;;;;;;18.48;5.47;;;17.00;99.90;;;;;;5103576;28;20035;-63
2023/09/28 07:32:47;;;;;;;21.33;5.72;;;17.10;99.90;;;;;;5122978;28;20065;-61
2023/09/28 07:35:13;;;;;;;22.25;5.55;;;17.10;99.90;;;;;;5122892;28;20043;-60
2023/09/28 07:37:40;;;;;;;17.63;5.25;;;17.20;99.90;;;;;;5123160;28;20402;-63
2023/09/28 07:40:12;;;;;;;23.45;5.65;;;17.40;99.90;;;;;;5099554;28;20046;-62
2023/09/28 07:42:39;;;;;;;21.85;6.22;;;17.30;99.90;;;;;;5106581;28;20101;-59
2023/09/28 07:45:05;;;;;;;24.70;5.68;;;17.50;99.90;;;;;;5118400;28;20447;-62
2023/09/28 07:47:31;;;;;;;16.98;5.20;;;17.50;99.90;;;;;;5122494;28;20042;-62
2023/09/28 07:49:56;;;;;;;17.20;4.95;;;17.50;99.90;;;;;;5104426;28;20470;-63
2023/09/28 07:52:23;;;;;;;17.02;5.20;;;17.60;99.90;;;;;;5122707;28;20119;-62
2023/09/28 07:54:48;;;;;;;22.27;6.03;;;17.60;99.90;;;;;;5122640;28;20038;-63
2023/09/28 07:57:14;;;;;;;19.35;5.75;;;17.60;99.90;;;;;;5121842;27;20397;-63
2023/09/28 07:59:40;;;;;;;17.85;5.50;;;17.70;99.90;;;;;;5120040;28;20044;-62
2023/09/28 08:02:09;;;;;;;19.05;5.70;;;17.60;99.90;;;;;;5119951;27;20061;-61
2023/09/28 08:04:36;;;;;;;18.33;5.03;;;17.60;99.90;;;;;;5123903;27;20484;-63
2023/09/28 08:07:02;;;;;;;20.77;5.13;;;17.70;99.90;;;;;;5121722;27;20042;-61
2023/09/28 08:09:28;;;;;;;22.73;5.85;;;17.60;99.90;;;;;;5123433;27;21492;-64
2023/09/28 08:11:55;;;;;;;25.45;5.88;;;17.80;99.90;;;;;;5124447;27;20772;-61
2023/09/28 08:14:21;;;;;;;18.80;5.00;;;17.80;99.90;;;;;;5122538;27;20122;-60
2023/09/28 08:16:48;;;;;;;17.90;4.97;;;17.90;99.90;;;;;;5121010;27;20342;-60
2023/09/28 08:19:14;;;;;;;18.42;4.70;;;17.80;99.90;;;;;;5104695;28;20051;-60
2023/09/28 08:21:40;;;;;;;21.83;5.72;;;18.00;99.90;;;;;;5122703;27;20076;-60
2023/09/28 08:24:08;;;;;;;18.45;4.63;;;18.00;99.90;;;;;;5104506;28;20070;-60
2023/09/28 08:26:35;;;;;;;20.20;5.03;;;18.00;99.90;;;;;;5124437;27;20118;-64
2023/09/28 08:29:01;;;;;;;23.13;5.15;;;18.10;99.90;;;;;;5124101;27;20034;-62
2023/09/28 08:31:27;;;;;;;27.65;4.82;;;18.10;99.90;;;;;;5117109;27;20078;-61
2023/09/28 08:33:54;;;;;;;23.15;5.30;;;18.10;99.90;;;;;;5125813;27;20076;-62
2023/09/28 08:36:21;;;;;;;22.17;5.13;;;18.10;99.90;;;;;;5124007;27;20509;-62
2023/09/28 08:38:47;;;;;;;29.65;5.82;;;18.00;99.90;;;;;;5123865;27;20116;-59
2023/09/28 08:41:16;;;;;;;25.58;5.47;;;18.00;99.90;;;;;;5104634;27;20038;-63
2023/09/28 08:43:46;;;;;;;23.75;5.40;;;18.10;99.90;;;;;;5124389;27;20046;-64
2023/09/28 08:46:13;;;;;;;28.00;6.05;;;18.00;99.90;;;;;;5124773;27;20484;-65
2023/09/28 08:48:45;;;;;;;22.25;5.30;;;18.00;99.90;;;;;;5122416;27;20039;-59
2023/09/28 08:51:11;;;;;;;23.65;5.03;;;18.10;99.90;;;;;;5121058;27;20039;-63
2023/09/28 08:53:38;;;;;;;24.60;5.00;;;18.20;99.90;;;;;;5104839;27;20065;-63
2023/09/28 08:56:05;;;;;;;29.63;5.53;;;18.20;99.90;;;;;;5121613;27;20043;-62
2023/09/28 08:58:34;;;;;;;25.35;5.50;;;18.10;99.90;;;;;;5121368;27;20487;-65
2023/09/28 09:01:01;;;;;;;21.15;5.00;;;18.20;99.90;;;;;;5123381;27;20024;-61
2023/09/28 09:03:28;;;;;;;22.15;5.07;;;18.30;99.90;;;;;;5120334;27;20077;-62
2023/09/28 09:05:56;;;;;;;25.27;5.07;;;18.30;99.90;;;;;;5121219;27;20039;-64
2023/09/28 09:08:22;;;;;;;24.63;4.90;;;18.40;99.90;;;;;;5103781;27;20035;-62
2023/09/28 09:10:50;;;;;;;28.45;5.68;;;18.40;99.90;;;;;;5123258;27;20051;-64
2023/09/28 09:13:18;;;;;;;24.40;5.00;;;18.50;99.90;;;;;;5120939;27;20036;-64
2023/09/28 09:15:43;;;;;;;23.73;4.95;;;18.50;99.90;;;;;;5122174;27;20047;-64
2023/09/28 09:18:16;;;;;;;29.60;5.28;;;18.60;99.90;;;;;;5102083;27;20501;-61
2023/09/28 09:20:42;;;;;;;24.38;5.47;;;18.60;99.90;;;;;;5120898;27;20059;-62
2023/09/28 09:23:15;;;;;;;26.70;5.97;;;18.60;99.90;;;;;;5119846;27;20029;-63
2023/09/28 09:25:53;;;;;;;21.15;5.10;;;18.60;99.90;;;;;;5121210;27;20047;-63
2023/09/28 09:28:43;;;;;;;29.20;6.07;;;18.60;99.90;;;;;;5122285;27;20356;-63
2023/09/28 09:31:09;;;;;;;32.38;5.50;;;18.60;99.90;;;;;;5104522;27;20046;-62
2023/09/28 09:33:36;;;;;;;25.70;5.25;;;18.50;99.90;;;;;;5121383;27;20122;-62
2023/09/28 09:36:02;;;;;;;24.48;4.90;;;18.60;99.90;;;;;;5122212;27;20393;-63
2023/09/28 09:38:29;;;;;;;25.63;5.50;;;18.60;99.90;;;;;;5101413;27;20051;-61
2023/09/28 09:41:00;;;;;;;22.70;5.07;;;18.70;99.90;;;;;;5121933;27;20027;-65
2023/09/28 09:43:36;;;;;;;25.02;4.55;;;18.70;99.90;;;;;;5120428;27;20565;-63
2023/09/28 09:46:06;;;;;;;24.95;5.30;;;18.80;99.90;;;;;;5102883;27;20498;-62
2023/09/28 09:48:42;;;;;;;24.50;5.13;;;18.80;99.90;;;;;;5122588;27;20035;-62
2023/09/28 09:51:15;;;;;;;29.15;5.28;;;18.80;99.90;;;;;;5122014;27;20031;-62
2023/09/28 09:53:43;;;;;;;28.13;5.78;;;18.80;99.90;;;;;;5120451;27;20035;-58
2023/09/28 09:56:10;;;;;;;22.83;5.18;;;18.80;99.90;;;;;;5116243;27;20035;-61
2023/09/28 09:58:40;;;;;;;28.75;5.00;;;18.80;99.90;;;;;;5127726;27;20469;-60
2023/09/28 10:01:27;;;;;;;25.05;4.85;;;18.80;99.90;;;;;;5092355;27;20035;-61
2023/09/28 10:03:55;;;;;;;23.00;5.35;;;18.90;99.90;;;;;;5110324;27;20110;-61
2023/09/28 10:06:22;;;;;;;26.83;5.20;;;18.90;99.90;;;;;;5112730;27;20065;-62
2023/09/28 10:08:50;;;;;;;22.38;4.72;;;18.90;99.90;;;;;;5132027;27;20046;-61
2023/09/28 10:11:18;;;;;;;22.52;5.30;;;19.00;99.90;;;;;;5114006;27;20053;-60
2023/09/28 10:13:48;;;;;;;26.88;4.82;;;19.10;99.90;;;;;;5114260;27;20126;-60
2023/09/28 10:16:18;;;;;;;22.73;4.70;;;19.10;99.90;;;;;;5132143;27;20394;-62
2023/09/28 10:18:47;;;;;;;24.48;5.03;;;19.20;99.90;;;;;;5132182;27;20494;-61
2023/09/28 10:21:16;;;;;;;21.73;4.68;;;19.30;99.90;;;;;;5131912;27;20451;-60
2023/09/28 10:23:42;;;;;;;22.83;4.63;;;19.40;99.90;;;;;;5132320;27;20031;-59
2023/09/28 10:26:11;;;;;;;25.90;5.10;;;19.50;99.90;;;;;;5131422;27;20444;-61
2023/09/28 10:29:01;;;;;;;21.63;5.05;;;19.70;99.90;;;;;;5131526;27;20045;-61
2023/09/28 10:31:31;;;;;;;25.10;4.28;;;19.70;99.90;;;;;;5132209;27;20099;-60
2023/09/28 10:34:01;;;;;;;24.05;5.28;;;19.80;99.90;;;;;;5132167;27;20039;-59
2023/09/28 10:36:27;;;;;;;17.38;4.50;;;19.90;99.90;;;;;;5113335;27;20436;-61
2023/09/28 10:39:16;;;;;;;24.52;5.07;;;19.90;99.90;;;;;;5131201;27;20486;-61
2023/09/28 10:41:49;;;;;;;24.00;4.97;;;19.90;99.90;;;;;;5129805;27;20103;-58
2023/09/28 10:44:17;;;;;;;20.75;4.60;;;19.90;99.90;;;;;;5132122;27;20043;-59
2023/09/28 10:46:50;;;;;;;21.63;4.75;;;19.80;99.90;;;;;;5131001;27;20042;-59
2023/09/28 10:49:26;;;;;;;19.85;4.57;;;19.90;99.90;;;;;;5130749;27;20413;-60
2023/09/28 10:51:53;;;;;;;20.33;4.53;;;19.80;99.90;;;;;;5132094;27;20043;-61
2023/09/28 10:54:20;;;;;;;24.02;4.50;;;19.70;99.90;;;;;;5125212;27;20482;-62
2023/09/28 10:56:52;;;;;;;26.77;4.90;;;19.70;99.90;;;;;;5130266;27;20539;-61
2023/09/28 10:59:19;;;;;;;20.50;4.65;;;19.70;99.90;;;;;;5129556;27;20046;-61
2023/09/28 11:01:46;;;;;;;24.65;5.40;;;19.70;99.90;;;;;;5128659;27;21341;-58
2023/09/28 11:04:13;;;;;;;22.20;4.45;;;19.70;99.90;;;;;;5130135;27;20368;-60
2023/09/28 11:06:43;;;;;;;23.23;4.30;;;19.70;99.90;;;;;;5111072;27;20031;-59
2023/09/28 11:09:10;;;;;;;21.38;4.57;;;19.70;99.90;;;;;;5111164;27;20109;-59
2023/09/28 11:11:37;;;;;;;26.80;4.85;;;19.70;99.90;;;;;;5131927;27;20547;-62
2023/09/28 11:14:05;;;;;;;18.25;4.40;;;19.70;99.90;;;;;;5109393;27;20055;-61
2023/09/28 11:16:34;;;;;;;23.45;4.50;;;19.80;99.90;;;;;;5133895;27;20068;-64
2023/09/28 11:19:00;;;;;;;23.10;5.38;;;19.80;99.90;;;;;;5136151;27;20110;-62
2023/09/28 11:21:28;;;;;;;27.13;5.10;;;19.80;99.90;;;;;;5133634;27;20035;-61
2023/09/28 11:23:54;;;;;;;19.17;4.80;;;19.80;99.90;;;;;;5094100;27;20035;-59
2023/09/28 11:26:22;;;;;;;24.48;5.13;;;19.80;99.90;;;;;;5109715;27;20046;-59
2023/09/28 11:28:50;;;;;;;21.25;4.68;;;19.80;99.90;;;;;;5134174;27;20035;-59
2023/09/28 11:31:16;;;;;;;18.40;4.10;;;19.70;99.90;;;;;;5112484;28;20156;-62
2023/09/28 11:33:44;;;;;;;25.25;4.40;;;19.70;99.90;;;;;;5135196;27;20035;-62
2023/09/28 11:36:24;;;;;;;24.55;4.78;;;19.80;99.90;;;;;;5128084;27;20552;-61
2023/09/28 11:38:52;;;;;;;22.83;5.65;;;19.70;99.90;;;;;;5129460;28;20031;-61
2023/09/28 11:41:21;;;;;;;19.95;4.45;;;19.70;99.90;;;;;;5110838;28;20031;-63
2023/09/28 11:43:47;;;;;;;18.48;4.47;;;19.80;99.90;;;;;;5131093;28;20460;-63
2023/09/28 11:46:23;;;;;;;20.63;4.35;;;19.90;99.90;;;;;;5129372;28;20489;-59
2023/09/28 11:49:05;;;;;;;20.77;4.57;;;19.90;99.90;;;;;;5130327;28;20041;-63
2023/09/28 11:51:32;;;;;;;23.08;5.05;;;19.90;99.90;;;;;;5130938;28;20039;-59
2023/09/28 11:53:58;;;;;;;21.73;4.35;;;19.90;99.90;;;;;;5129711;28;20039;-62
2023/09/28 11:56:23;;;;;;;20.60;4.95;;;19.90;99.90;;;;;;5130867;28;20118;-62
2023/09/28 11:58:49;;;;;;;21.40;4.07;;;19.90;99.90;;;;;;5130300;28;20085;-64
2023/09/28 12:01:15;;;;;;;19.73;4.30;;;20.00;99.90;;;;;;5132309;27;20039;-62
2023/09/28 12:03:41;;;;;;;16.80;4.07;;;20.00;99.90;;;;;;5134913;27;20069;-62
2023/09/28 12:06:06;;;;;;;18.00;4.25;;;20.10;99.90;;;;;;5134343;27;20500;-61
2023/09/28 12:08:33;;;;;;;18.92;4.10;;;20.10;99.90;;;;;;5114555;27;20126;-61
2023/09/28 12:10:59;;;;;;;20.77;4.18;;;20.20;99.90;;;;;;5133346;27;20041;-61
2023/09/28 12:13:26;;;;;;;18.88;4.60;;;20.30;99.90;;;;;;5134510;27;20039;-59
2023/09/28 12:15:53;;;;;;;23.83;4.75;;;20.30;99.90;;;;;;5133211;27;20110;-59
2023/09/28 12:18:19;;;;;;;17.25;4.18;;;20.30;99.90;;;;;;5133812;27;20027;-61
2023/09/28 12:20:44;;;;;;;19.05;3.85;;;20.30;99.90;;;;;;5115467;27;20087;-59
2023/09/28 12:23:10;;;;;;;17.38;3.63;;;20.30;99.90;;;;;;5134103;27;20031;-62
2023/09/28 12:25:36;;;;;;;18.88;4.80;;;20.20;99.90;;;;;;5134235;27;20054;-59
2023/09/28 12:28:02;;;;;;;14.98;3.55;;;20.20;99.90;;;;;;5116092;27;20035;-59
2023/09/28 12:30:30;;;;;;;18.02;4.25;;;20.20;99.90;;;;;;5116361;27;20042;-60
2023/09/28 12:32:57;;;;;;;18.33;4.20;;;20.10;99.90;;;;;;5133192;27;20046;-61
2023/09/28 12:35:23;;;;;;;18.75;4.45;;;20.20;99.90;;;;;;5132626;27;20038;-60
2023/09/28 12:37:49;;;;;;;17.45;3.95;;;20.30;99.90;;;;;;5111753;27;20062;-59
2023/09/28 12:40:16;;;;;;;21.50;4.63;;;20.40;99.90;;;;;;5132302;27;20474;-59